METAR Data
IDs: Format: Raw Decoded Include TAF

Data at: 1852 UTC 02 Oct 2022

METAR for:KCCU (Copper Mtn/Red Cliff, CO, US)
Text:KCCU 021835Z AUTO 18006G18KT 10SM SCT047 SCT055 BKN095 07/01 A3056 RMK AO2
Temperature: 7.0°C ( 45°F)
Dewpoint: 1.0°C ( 34°F) [RH = 66%]
Pressure (altimeter):30.56 inches Hg (1035.0 mb)
Winds:from the S (180 degrees) at 7 MPH (6 knots; 3.1 m/s) gusting to 21 MPH (18 knots; 9.3 m/s)
Visibility:10 or more sm (16+ km)
Ceiling:9500 feet AGL
Clouds: scattered clouds at 4700 feet AGL, scattered clouds at 5500 feet AGL, broken clouds at 9500 feet AGL
QC Flag:automated observation with no human augmentation